Austin, Kansas
Current Conditions -  °F | °C
As of 6:52 PM on Monday 22 Dec 2014 (Local Time) from KCNU Reporting Station
Clear Clear  
Wind Chill:   Ceiling: Unl
Heat Index:   Visibility: 10mi
Dew Point:   Wind: 6mph
Humidity: 89%   Direction: 230°SW
Pressure: 29.58"   Gusts: NA
Location:  37.6378°N, 95.4622°W
Report Text: KCNU 230052Z AUTO 23005KT 10SM CLR 04/03 A2958 RMK AO2 SLP017 T00440028
Loading
Personal Weather Stations






























Interactive Weather Map New forecast layout! Learn more

10-Day Weather Forecast

Advertisements
Track Severe Weather on mobile